sensor_id;sensor_type;location;lat;lon;timestamp;P1;durP1;ratioP1;P2;durP2;ratioP2
7753;SDS011;3921;42.266;23.122;2023-04-03T00:00:39;4.80;;;3.77;;
7753;SDS011;3921;42.266;23.122;2023-04-03T00:03:07;6.37;;;4.50;;
7753;SDS011;3921;42.266;23.122;2023-04-03T00:05:34;8.43;;;5.50;;
7753;SDS011;3921;42.266;23.122;2023-04-03T00:08:02;11.27;;;5.97;;
7753;SDS011;3921;42.266;23.122;2023-04-03T00:10:32;10.77;;;6.40;;
7753;SDS011;3921;42.266;23.122;2023-04-03T00:13:00;9.53;;;6.17;;
7753;SDS011;3921;42.266;23.122;2023-04-03T00:15:27;12.20;;;6.40;;
7753;SDS011;3921;42.266;23.122;2023-04-03T00:17:55;12.37;;;6.70;;
7753;SDS011;3921;42.266;23.122;2023-04-03T00:20:23;10.27;;;5.43;;
7753;SDS011;3921;42.266;23.122;2023-04-03T00:22:51;8.87;;;5.80;;
7753;SDS011;3921;42.266;23.122;2023-04-03T00:25:18;9.67;;;6.17;;
7753;SDS011;3921;42.266;23.122;2023-04-03T00:27:45;9.67;;;5.90;;
7753;SDS011;3921;42.266;23.122;2023-04-03T00:30:13;9.47;;;5.80;;
7753;SDS011;3921;42.266;23.122;2023-04-03T00:32:43;9.30;;;5.63;;
7753;SDS011;3921;42.266;23.122;2023-04-03T00:35:11;10.20;;;6.00;;
7753;SDS011;3921;42.266;23.122;2023-04-03T00:37:42;14.20;;;6.90;;
7753;SDS011;3921;42.266;23.122;2023-04-03T00:40:10;10.83;;;6.53;;
7753;SDS011;3921;42.266;23.122;2023-04-03T00:42:40;9.93;;;6.60;;
7753;SDS011;3921;42.266;23.122;2023-04-03T00:45:29;11.10;;;7.10;;
7753;SDS011;3921;42.266;23.122;2023-04-03T00:47:59;10.27;;;5.93;;
7753;SDS011;3921;42.266;23.122;2023-04-03T00:50:30;10.43;;;5.80;;
7753;SDS011;3921;42.266;23.122;2023-04-03T00:53:05;9.27;;;5.27;;
7753;SDS011;3921;42.266;23.122;2023-04-03T00:55:36;7.90;;;4.50;;
7753;SDS011;3921;42.266;23.122;2023-04-03T00:58:05;8.17;;;4.00;;
7753;SDS011;3921;42.266;23.122;2023-04-03T01:00:35;6.27;;;3.57;;
7753;SDS011;3921;42.266;23.122;2023-04-03T01:03:04;4.70;;;3.73;;
7753;SDS011;3921;42.266;23.122;2023-04-03T01:05:31;5.13;;;3.70;;
7753;SDS011;3921;42.266;23.122;2023-04-03T01:08:00;7.37;;;4.63;;
7753;SDS011;3921;42.266;23.122;2023-04-03T01:10:29;9.03;;;4.97;;
7753;SDS011;3921;42.266;23.122;2023-04-03T01:12:56;9.13;;;5.37;;
7753;SDS011;3921;42.266;23.122;2023-04-03T01:15:24;11.37;;;5.53;;
7753;SDS011;3921;42.266;23.122;2023-04-03T01:18:00;9.03;;;4.87;;
7753;SDS011;3921;42.266;23.122;2023-04-03T01:23:45;12.50;;;5.50;;
7753;SDS011;3921;42.266;23.122;2023-04-03T01:26:22;7.43;;;5.07;;
7753;SDS011;3921;42.266;23.122;2023-04-03T01:28:51;7.17;;;5.07;;
7753;SDS011;3921;42.266;23.122;2023-04-03T01:31:22;6.63;;;4.20;;
7753;SDS011;3921;42.266;23.122;2023-04-03T01:33:54;7.30;;;5.10;;
7753;SDS011;3921;42.266;23.122;2023-04-03T01:36:22;7.47;;;4.33;;
7753;SDS011;3921;42.266;23.122;2023-04-03T01:38:50;6.47;;;4.03;;
7753;SDS011;3921;42.266;23.122;2023-04-03T01:41:18;6.10;;;4.50;;
7753;SDS011;3921;42.266;23.122;2023-04-03T01:43:46;8.03;;;4.40;;
7753;SDS011;3921;42.266;23.122;2023-04-03T01:46:14;6.83;;;4.50;;
7753;SDS011;3921;42.266;23.122;2023-04-03T01:48:41;6.03;;;4.07;;
7753;SDS011;3921;42.266;23.122;2023-04-03T01:51:10;9.17;;;4.87;;
7753;SDS011;3921;42.266;23.122;2023-04-03T01:53:37;7.30;;;4.87;;
7753;SDS011;3921;42.266;23.122;2023-04-03T01:56:05;8.87;;;5.47;;
7753;SDS011;3921;42.266;23.122;2023-04-03T01:58:32;10.33;;;6.30;;
7753;SDS011;3921;42.266;23.122;2023-04-03T02:00:59;10.20;;;5.60;;
7753;SDS011;3921;42.266;23.122;2023-04-03T02:03:26;8.57;;;4.80;;
7753;SDS011;3921;42.266;23.122;2023-04-03T02:05:53;5.70;;;3.97;;
7753;SDS011;3921;42.266;23.122;2023-04-03T02:08:22;5.47;;;3.73;;
7753;SDS011;3921;42.266;23.122;2023-04-03T02:10:49;5.30;;;3.83;;
7753;SDS011;3921;42.266;23.122;2023-04-03T02:13:17;6.10;;;4.07;;
7753;SDS011;3921;42.266;23.122;2023-04-03T02:15:45;4.90;;;3.90;;
7753;SDS011;3921;42.266;23.122;2023-04-03T02:18:13;4.03;;;3.33;;
7753;SDS011;3921;42.266;23.122;2023-04-03T02:20:40;6.37;;;3.80;;
7753;SDS011;3921;42.266;23.122;2023-04-03T02:23:07;5.13;;;4.03;;
7753;SDS011;3921;42.266;23.122;2023-04-03T02:25:39;4.43;;;3.40;;
7753;SDS011;3921;42.266;23.122;2023-04-03T02:28:06;4.47;;;3.17;;
7753;SDS011;3921;42.266;23.122;2023-04-03T02:30:33;4.70;;;3.20;;
7753;SDS011;3921;42.266;23.122;2023-04-03T02:33:00;3.10;;;2.47;;
7753;SDS011;3921;42.266;23.122;2023-04-03T02:35:27;3.90;;;2.73;;
7753;SDS011;3921;42.266;23.122;2023-04-03T02:37:54;4.13;;;2.90;;
7753;SDS011;3921;42.266;23.122;2023-04-03T02:40:21;4.53;;;3.00;;
7753;SDS011;3921;42.266;23.122;2023-04-03T02:42:50;5.40;;;2.90;;
7753;SDS011;3921;42.266;23.122;2023-04-03T02:45:20;4.03;;;3.07;;
7753;SDS011;3921;42.266;23.122;2023-04-03T02:47:47;3.20;;;2.37;;
7753;SDS011;3921;42.266;23.122;2023-04-03T02:50:14;4.43;;;3.27;;
7753;SDS011;3921;42.266;23.122;2023-04-03T02:52:41;5.80;;;3.77;;
7753;SDS011;3921;42.266;23.122;2023-04-03T02:55:08;5.53;;;3.67;;
7753;SDS011;3921;42.266;23.122;2023-04-03T02:57:36;6.27;;;3.10;;
7753;SDS011;3921;42.266;23.122;2023-04-03T03:00:05;4.30;;;3.90;;
7753;SDS011;3921;42.266;23.122;2023-04-03T03:02:34;5.60;;;3.97;;
7753;SDS011;3921;42.266;23.122;2023-04-03T03:05:01;5.67;;;3.93;;
7753;SDS011;3921;42.266;23.122;2023-04-03T03:07:28;4.33;;;3.47;;
7753;SDS011;3921;42.266;23.122;2023-04-03T03:09:55;3.63;;;3.10;;
7753;SDS011;3921;42.266;23.122;2023-04-03T03:12:22;4.87;;;3.10;;
7753;SDS011;3921;42.266;23.122;2023-04-03T03:14:49;4.43;;;2.80;;
7753;SDS011;3921;42.266;23.122;2023-04-03T03:17:18;4.43;;;3.27;;
7753;SDS011;3921;42.266;23.122;2023-04-03T03:19:45;6.73;;;3.30;;
7753;SDS011;3921;42.266;23.122;2023-04-03T03:22:12;5.57;;;3.30;;
7753;SDS011;3921;42.266;23.122;2023-04-03T03:24:40;5.77;;;3.87;;
7753;SDS011;3921;42.266;23.122;2023-04-03T03:27:07;6.77;;;3.90;;
7753;SDS011;3921;42.266;23.122;2023-04-03T03:29:34;4.70;;;3.50;;
7753;SDS011;3921;42.266;23.122;2023-04-03T03:32:01;5.63;;;3.53;;
7753;SDS011;3921;42.266;23.122;2023-04-03T03:34:30;6.17;;;4.30;;
7753;SDS011;3921;42.266;23.122;2023-04-03T03:37:03;6.37;;;3.77;;
7753;SDS011;3921;42.266;23.122;2023-04-03T03:39:30;5.93;;;4.30;;
7753;SDS011;3921;42.266;23.122;2023-04-03T03:41:58;9.17;;;5.27;;
7753;SDS011;3921;42.266;23.122;2023-04-03T03:44:25;12.50;;;7.27;;
7753;SDS011;3921;42.266;23.122;2023-04-03T03:46:54;16.83;;;9.00;;
7753;SDS011;3921;42.266;23.122;2023-04-03T03:49:21;19.53;;;10.33;;
7753;SDS011;3921;42.266;23.122;2023-04-03T03:51:50;20.10;;;10.27;;
7753;SDS011;3921;42.266;23.122;2023-04-03T03:54:17;15.30;;;8.37;;
7753;SDS011;3921;42.266;23.122;2023-04-03T03:56:44;12.83;;;6.97;;
7753;SDS011;3921;42.266;23.122;2023-04-03T03:59:14;8.30;;;5.50;;
7753;SDS011;3921;42.266;23.122;2023-04-03T04:01:41;7.63;;;5.37;;
7753;SDS011;3921;42.266;23.122;2023-04-03T04:04:08;6.90;;;5.20;;
7753;SDS011;3921;42.266;23.122;2023-04-03T04:06:35;11.03;;;5.40;;
7753;SDS011;3921;42.266;23.122;2023-04-03T04:09:04;7.93;;;5.50;;
7753;SDS011;3921;42.266;23.122;2023-04-03T04:11:31;8.17;;;5.70;;
7753;SDS011;3921;42.266;23.122;2023-04-03T04:13:58;7.83;;;5.60;;
7753;SDS011;3921;42.266;23.122;2023-04-03T04:16:25;12.80;;;6.77;;
7753;SDS011;3921;42.266;23.122;2023-04-03T04:18:52;8.77;;;6.37;;
7753;SDS011;3921;42.266;23.122;2023-04-03T04:21:19;10.77;;;7.10;;
7753;SDS011;3921;42.266;23.122;2023-04-03T04:23:46;13.77;;;7.10;;
7753;SDS011;3921;42.266;23.122;2023-04-03T04:26:15;11.47;;;6.53;;
7753;SDS011;3921;42.266;23.122;2023-04-03T04:28:42;9.50;;;6.30;;
7753;SDS011;3921;42.266;23.122;2023-04-03T04:31:09;10.87;;;6.53;;
7753;SDS011;3921;42.266;23.122;2023-04-03T04:33:36;10.23;;;6.13;;
7753;SDS011;3921;42.266;23.122;2023-04-03T04:36:03;13.37;;;7.30;;
7753;SDS011;3921;42.266;23.122;2023-04-03T04:38:30;13.23;;;7.23;;
7753;SDS011;3921;42.266;23.122;2023-04-03T04:40:57;10.77;;;6.87;;
7753;SDS011;3921;42.266;23.122;2023-04-03T04:43:26;14.03;;;6.90;;
7753;SDS011;3921;42.266;23.122;2023-04-03T04:46:00;17.20;;;7.37;;
7753;SDS011;3921;42.266;23.122;2023-04-03T04:48:28;11.97;;;8.23;;
7753;SDS011;3921;42.266;23.122;2023-04-03T04:50:55;14.10;;;8.27;;
7753;SDS011;3921;42.266;23.122;2023-04-03T04:53:22;14.17;;;8.47;;
7753;SDS011;3921;42.266;23.122;2023-04-03T04:55:50;13.43;;;8.33;;
7753;SDS011;3921;42.266;23.122;2023-04-03T04:58:20;14.40;;;8.93;;
7753;SDS011;3921;42.266;23.122;2023-04-03T05:00:50;12.57;;;7.90;;
7753;SDS011;3921;42.266;23.122;2023-04-03T05:03:27;14.23;;;8.77;;
7753;SDS011;3921;42.266;23.122;2023-04-03T05:05:54;8.20;;;6.90;;
7753;SDS011;3921;42.266;23.122;2023-04-03T05:08:21;10.13;;;7.13;;
7753;SDS011;3921;42.266;23.122;2023-04-03T05:10:48;12.70;;;7.10;;
7753;SDS011;3921;42.266;23.122;2023-04-03T05:13:28;14.83;;;8.03;;
7753;SDS011;3921;42.266;23.122;2023-04-03T05:15:57;14.43;;;8.00;;
7753;SDS011;3921;42.266;23.122;2023-04-03T05:18:50;12.77;;;6.20;;
7753;SDS011;3921;42.266;23.122;2023-04-03T05:21:37;51.10;;;30.87;;
7753;SDS011;3921;42.266;23.122;2023-04-03T05:24:05;31.97;;;21.93;;
7753;SDS011;3921;42.266;23.122;2023-04-03T05:26:54;11.23;;;5.30;;
7753;SDS011;3921;42.266;23.122;2023-04-03T05:29:21;10.27;;;5.40;;
7753;SDS011;3921;42.266;23.122;2023-04-03T05:31:50;8.73;;;4.63;;
7753;SDS011;3921;42.266;23.122;2023-04-03T05:34:17;9.37;;;4.97;;
7753;SDS011;3921;42.266;23.122;2023-04-03T05:36:45;7.23;;;5.77;;
7753;SDS011;3921;42.266;23.122;2023-04-03T05:39:11;6.90;;;5.53;;
7753;SDS011;3921;42.266;23.122;2023-04-03T05:41:38;8.93;;;6.00;;
7753;SDS011;3921;42.266;23.122;2023-04-03T05:44:05;10.57;;;5.60;;
7753;SDS011;3921;42.266;23.122;2023-04-03T05:46:32;10.97;;;6.57;;
7753;SDS011;3921;42.266;23.122;2023-04-03T05:49:01;7.77;;;5.40;;
7753;SDS011;3921;42.266;23.122;2023-04-03T05:51:28;8.57;;;5.00;;
7753;SDS011;3921;42.266;23.122;2023-04-03T05:53:59;7.77;;;5.47;;
7753;SDS011;3921;42.266;23.122;2023-04-03T05:56:32;8.03;;;5.63;;
7753;SDS011;3921;42.266;23.122;2023-04-03T05:58:59;7.60;;;5.97;;
7753;SDS011;3921;42.266;23.122;2023-04-03T06:01:26;9.60;;;5.80;;
7753;SDS011;3921;42.266;23.122;2023-04-03T06:03:53;8.83;;;5.73;;
7753;SDS011;3921;42.266;23.122;2023-04-03T06:06:22;10.20;;;5.93;;
7753;SDS011;3921;42.266;23.122;2023-04-03T06:08:49;12.73;;;6.10;;
7753;SDS011;3921;42.266;23.122;2023-04-03T06:11:16;8.63;;;5.93;;
7753;SDS011;3921;42.266;23.122;2023-04-03T06:13:43;8.40;;;5.53;;
7753;SDS011;3921;42.266;23.122;2023-04-03T06:16:11;8.37;;;6.00;;
7753;SDS011;3921;42.266;23.122;2023-04-03T06:18:40;11.23;;;6.47;;
7753;SDS011;3921;42.266;23.122;2023-04-03T06:21:07;9.53;;;6.20;;
7753;SDS011;3921;42.266;23.122;2023-04-03T06:23:36;10.37;;;7.33;;
7753;SDS011;3921;42.266;23.122;2023-04-03T06:26:03;10.23;;;6.90;;
7753;SDS011;3921;42.266;23.122;2023-04-03T06:28:30;12.87;;;7.23;;
7753;SDS011;3921;42.266;23.122;2023-04-03T06:30:57;13.47;;;7.90;;
7753;SDS011;3921;42.266;23.122;2023-04-03T06:33:24;9.80;;;7.10;;
7753;SDS011;3921;42.266;23.122;2023-04-03T06:35:55;12.40;;;8.13;;
7753;SDS011;3921;42.266;23.122;2023-04-03T06:38:26;16.10;;;9.20;;
7753;SDS011;3921;42.266;23.122;2023-04-03T06:40:54;13.77;;;8.80;;
7753;SDS011;3921;42.266;23.122;2023-04-03T06:43:22;10.07;;;6.97;;
7753;SDS011;3921;42.266;23.122;2023-04-03T06:45:49;9.73;;;6.90;;
7753;SDS011;3921;42.266;23.122;2023-04-03T06:48:16;8.00;;;5.90;;
7753;SDS011;3921;42.266;23.122;2023-04-03T06:50:43;5.73;;;4.80;;
7753;SDS011;3921;42.266;23.122;2023-04-03T06:53:10;4.53;;;3.50;;
7753;SDS011;3921;42.266;23.122;2023-04-03T06:55:37;6.37;;;4.33;;
7753;SDS011;3921;42.266;23.122;2023-04-03T06:58:06;8.00;;;3.67;;
7753;SDS011;3921;42.266;23.122;2023-04-03T07:00:33;4.83;;;3.60;;
7753;SDS011;3921;42.266;23.122;2023-04-03T07:03:00;5.67;;;3.63;;
7753;SDS011;3921;42.266;23.122;2023-04-03T07:05:27;5.80;;;3.33;;
7753;SDS011;3921;42.266;23.122;2023-04-03T07:07:54;5.83;;;4.03;;
7753;SDS011;3921;42.266;23.122;2023-04-03T07:10:21;6.13;;;4.83;;
7753;SDS011;3921;42.266;23.122;2023-04-03T07:12:48;8.07;;;4.27;;
7753;SDS011;3921;42.266;23.122;2023-04-03T07:15:16;13.10;;;8.53;;
7753;SDS011;3921;42.266;23.122;2023-04-03T07:17:43;11.20;;;6.20;;
7753;SDS011;3921;42.266;23.122;2023-04-03T07:20:29;7.15;;;4.00;;
7753;SDS011;3921;42.266;23.122;2023-04-03T07:22:56;5.17;;;4.00;;
7753;SDS011;3921;42.266;23.122;2023-04-03T07:25:24;8.13;;;4.70;;
7753;SDS011;3921;42.266;23.122;2023-04-03T07:27:52;5.87;;;4.20;;
7753;SDS011;3921;42.266;23.122;2023-04-03T07:30:19;6.80;;;3.70;;
7753;SDS011;3921;42.266;23.122;2023-04-03T07:32:51;6.03;;;4.53;;
7753;SDS011;3921;42.266;23.122;2023-04-03T07:35:18;5.87;;;3.90;;
7753;SDS011;3921;42.266;23.122;2023-04-03T07:37:47;7.67;;;4.20;;
7753;SDS011;3921;42.266;23.122;2023-04-03T07:40:14;12.07;;;5.57;;
7753;SDS011;3921;42.266;23.122;2023-04-03T07:42:41;12.80;;;7.60;;
7753;SDS011;3921;42.266;23.122;2023-04-03T07:45:09;4.40;;;2.87;;
7753;SDS011;3921;42.266;23.122;2023-04-03T07:47:36;8.27;;;4.00;;
7753;SDS011;3921;42.266;23.122;2023-04-03T07:50:04;6.77;;;4.67;;
7753;SDS011;3921;42.266;23.122;2023-04-03T07:52:33;5.27;;;3.57;;
7753;SDS011;3921;42.266;23.122;2023-04-03T07:55:02;4.03;;;3.00;;
7753;SDS011;3921;42.266;23.122;2023-04-03T07:57:29;3.43;;;2.43;;
7753;SDS011;3921;42.266;23.122;2023-04-03T07:59:56;2.70;;;2.30;;
7753;SDS011;3921;42.266;23.122;2023-04-03T08:02:24;7.47;;;3.83;;
7753;SDS011;3921;42.266;23.122;2023-04-03T08:04:51;6.30;;;2.80;;
7753;SDS011;3921;42.266;23.122;2023-04-03T08:07:18;4.20;;;2.40;;
7753;SDS011;3921;42.266;23.122;2023-04-03T08:09:46;4.33;;;2.03;;
7753;SDS011;3921;42.266;23.122;2023-04-03T08:12:14;4.10;;;2.40;;
7753;SDS011;3921;42.266;23.122;2023-04-03T08:14:41;3.47;;;2.10;;
7753;SDS011;3921;42.266;23.122;2023-04-03T08:17:08;2.80;;;2.13;;
7753;SDS011;3921;42.266;23.122;2023-04-03T08:19:36;6.17;;;2.63;;
7753;SDS011;3921;42.266;23.122;2023-04-03T08:22:03;3.27;;;2.20;;
7753;SDS011;3921;42.266;23.122;2023-04-03T08:24:31;2.43;;;2.23;;
7753;SDS011;3921;42.266;23.122;2023-04-03T08:26:58;2.40;;;2.20;;
7753;SDS011;3921;42.266;23.122;2023-04-03T08:29:27;3.10;;;2.13;;
7753;SDS011;3921;42.266;23.122;2023-04-03T08:31:54;8.67;;;4.60;;
7753;SDS011;3921;42.266;23.122;2023-04-03T08:34:21;12.37;;;6.17;;
7753;SDS011;3921;42.266;23.122;2023-04-03T08:36:48;4.83;;;2.70;;
7753;SDS011;3921;42.266;23.122;2023-04-03T08:39:15;4.67;;;2.90;;
7753;SDS011;3921;42.266;23.122;2023-04-03T08:41:43;2.87;;;2.13;;
7753;SDS011;3921;42.266;23.122;2023-04-03T08:44:15;2.30;;;2.10;;
7753;SDS011;3921;42.266;23.122;2023-04-03T08:46:58;6.23;;;2.70;;
7753;SDS011;3921;42.266;23.122;2023-04-03T08:49:31;3.63;;;2.20;;
7753;SDS011;3921;42.266;23.122;2023-04-03T08:52:01;5.13;;;2.50;;
7753;SDS011;3921;42.266;23.122;2023-04-03T08:54:33;4.00;;;2.40;;
7753;SDS011;3921;42.266;23.122;2023-04-03T08:57:02;2.57;;;1.87;;
7753;SDS011;3921;42.266;23.122;2023-04-03T08:59:32;3.80;;;2.10;;
7753;SDS011;3921;42.266;23.122;2023-04-03T09:02:14;3.47;;;2.30;;
7753;SDS011;3921;42.266;23.122;2023-04-03T09:04:54;3.00;;;2.10;;
7753;SDS011;3921;42.266;23.122;2023-04-03T09:07:25;2.37;;;1.80;;
7753;SDS011;3921;42.266;23.122;2023-04-03T09:10:02;2.43;;;1.60;;
7753;SDS011;3921;42.266;23.122;2023-04-03T09:12:32;2.23;;;1.83;;
7753;SDS011;3921;42.266;23.122;2023-04-03T09:15:06;2.03;;;1.77;;
7753;SDS011;3921;42.266;23.122;2023-04-03T09:17:45;3.60;;;2.00;;
7753;SDS011;3921;42.266;23.122;2023-04-03T09:20:21;3.00;;;2.20;;
7753;SDS011;3921;42.266;23.122;2023-04-03T09:22:53;7.20;;;3.30;;
7753;SDS011;3921;42.266;23.122;2023-04-03T09:25:21;3.87;;;2.20;;
7753;SDS011;3921;42.266;23.122;2023-04-03T09:27:50;3.13;;;2.27;;
7753;SDS011;3921;42.266;23.122;2023-04-03T09:30:19;7.80;;;3.10;;
7753;SDS011;3921;42.266;23.122;2023-04-03T09:32:50;4.47;;;2.23;;
7753;SDS011;3921;42.266;23.122;2023-04-03T09:35:22;2.53;;;2.10;;
7753;SDS011;3921;42.266;23.122;2023-04-03T09:37:52;3.00;;;2.23;;
7753;SDS011;3921;42.266;23.122;2023-04-03T09:40:32;4.70;;;2.80;;
7753;SDS011;3921;42.266;23.122;2023-04-03T09:43:01;3.87;;;2.17;;
7753;SDS011;3921;42.266;23.122;2023-04-03T09:45:45;2.57;;;2.37;;
7753;SDS011;3921;42.266;23.122;2023-04-03T09:48:16;3.93;;;2.80;;
7753;SDS011;3921;42.266;23.122;2023-04-03T09:50:58;10.67;;;4.33;;
7753;SDS011;3921;42.266;23.122;2023-04-03T09:53:27;4.73;;;2.83;;
7753;SDS011;3921;42.266;23.122;2023-04-03T09:56:01;6.60;;;2.97;;
7753;SDS011;3921;42.266;23.122;2023-04-03T09:58:30;4.53;;;3.00;;
7753;SDS011;3921;42.266;23.122;2023-04-03T10:01:01;4.67;;;2.60;;
7753;SDS011;3921;42.266;23.122;2023-04-03T10:03:31;5.13;;;4.00;;
7753;SDS011;3921;42.266;23.122;2023-04-03T10:06:00;6.13;;;2.20;;
7753;SDS011;3921;42.266;23.122;2023-04-03T10:08:29;11.23;;;2.93;;
7753;SDS011;3921;42.266;23.122;2023-04-03T10:11:11;2.83;;;2.30;;
7753;SDS011;3921;42.266;23.122;2023-04-03T10:13:51;4.97;;;2.07;;
7753;SDS011;3921;42.266;23.122;2023-04-03T10:16:20;6.87;;;2.40;;
7753;SDS011;3921;42.266;23.122;2023-04-03T10:19:06;5.47;;;2.20;;
7753;SDS011;3921;42.266;23.122;2023-04-03T10:21:44;3.17;;;2.30;;
7753;SDS011;3921;42.266;23.122;2023-04-03T10:24:17;9.47;;;2.33;;
7753;SDS011;3921;42.266;23.122;2023-04-03T10:26:52;4.33;;;2.10;;
7753;SDS011;3921;42.266;23.122;2023-04-03T10:29:31;5.57;;;2.30;;
7753;SDS011;3921;42.266;23.122;2023-04-03T10:32:10;3.07;;;1.90;;
7753;SDS011;3921;42.266;23.122;2023-04-03T10:34:50;2.47;;;2.20;;
7753;SDS011;3921;42.266;23.122;2023-04-03T10:37:27;2.80;;;2.30;;
7753;SDS011;3921;42.266;23.122;2023-04-03T10:40:02;4.27;;;2.33;;
7753;SDS011;3921;42.266;23.122;2023-04-03T10:42:39;3.07;;;2.17;;
7753;SDS011;3921;42.266;23.122;2023-04-03T10:45:19;2.50;;;2.20;;
7753;SDS011;3921;42.266;23.122;2023-04-03T10:47:53;3.00;;;2.23;;
7753;SDS011;3921;42.266;23.122;2023-04-03T10:50:35;3.17;;;2.20;;
7753;SDS011;3921;42.266;23.122;2023-04-03T10:53:12;4.23;;;2.10;;
7753;SDS011;3921;42.266;23.122;2023-04-03T10:55:51;3.60;;;2.20;;
7753;SDS011;3921;42.266;23.122;2023-04-03T10:58:25;2.10;;;1.90;;
7753;SDS011;3921;42.266;23.122;2023-04-03T11:01:01;2.30;;;1.83;;
7753;SDS011;3921;42.266;23.122;2023-04-03T11:03:40;2.50;;;1.70;;
7753;SDS011;3921;42.266;23.122;2023-04-03T11:06:21;2.83;;;1.90;;
7753;SDS011;3921;42.266;23.122;2023-04-03T11:08:53;1.97;;;1.77;;
7753;SDS011;3921;42.266;23.122;2023-04-03T11:11:40;2.10;;;1.60;;
7753;SDS011;3921;42.266;23.122;2023-04-03T11:14:25;1.93;;;1.70;;
7753;SDS011;3921;42.266;23.122;2023-04-03T11:16:59;4.87;;;2.50;;
7753;SDS011;3921;42.266;23.122;2023-04-03T11:19:34;3.70;;;2.00;;
7753;SDS011;3921;42.266;23.122;2023-04-03T11:22:10;4.67;;;2.43;;
7753;SDS011;3921;42.266;23.122;2023-04-03T11:24:46;2.67;;;1.90;;
7753;SDS011;3921;42.266;23.122;2023-04-03T11:27:23;3.53;;;2.30;;
7753;SDS011;3921;42.266;23.122;2023-04-03T11:29:56;2.43;;;2.23;;
7753;SDS011;3921;42.266;23.122;2023-04-03T11:32:31;2.63;;;2.43;;
7753;SDS011;3921;42.266;23.122;2023-04-03T11:38:28;4.67;;;2.20;;
7753;SDS011;3921;42.266;23.122;2023-04-03T11:41:04;2.80;;;2.50;;
7753;SDS011;3921;42.266;23.122;2023-04-03T11:43:33;2.60;;;2.40;;
7753;SDS011;3921;42.266;23.122;2023-04-03T11:46:08;2.30;;;2.10;;
7753;SDS011;3921;42.266;23.122;2023-04-03T11:51:41;3.13;;;1.97;;
7753;SDS011;3921;42.266;23.122;2023-04-03T11:57:22;3.57;;;2.30;;
7753;SDS011;3921;42.266;23.122;2023-04-03T12:09:22;3.60;;;2.03;;
7753;SDS011;3921;42.266;23.122;2023-04-03T12:14:53;3.60;;;2.23;;
7753;SDS011;3921;42.266;23.122;2023-04-03T12:17:20;4.27;;;2.33;;
7753;SDS011;3921;42.266;23.122;2023-04-03T12:19:54;7.03;;;2.40;;
7753;SDS011;3921;42.266;23.122;2023-04-03T12:22:23;3.73;;;2.33;;
7753;SDS011;3921;42.266;23.122;2023-04-03T12:24:51;3.93;;;2.60;;
7753;SDS011;3921;42.266;23.122;2023-04-03T12:27:26;3.13;;;2.50;;
7753;SDS011;3921;42.266;23.122;2023-04-03T12:32:54;3.00;;;2.00;;
7753;SDS011;3921;42.266;23.122;2023-04-03T12:35:34;3.27;;;2.20;;
7753;SDS011;3921;42.266;23.122;2023-04-03T12:41:22;2.13;;;2.00;;
7753;SDS011;3921;42.266;23.122;2023-04-03T12:44:01;1.90;;;1.80;;
7753;SDS011;3921;42.266;23.122;2023-04-03T12:46:54;2.30;;;2.00;;
7753;SDS011;3921;42.266;23.122;2023-04-03T12:49:36;5.17;;;2.30;;
7753;SDS011;3921;42.266;23.122;2023-04-03T12:52:16;3.80;;;2.10;;
7753;SDS011;3921;42.266;23.122;2023-04-03T12:54:48;3.60;;;1.90;;
7753;SDS011;3921;42.266;23.122;2023-04-03T12:57:17;2.57;;;2.37;;
7753;SDS011;3921;42.266;23.122;2023-04-03T12:59:46;4.03;;;2.20;;
7753;SDS011;3921;42.266;23.122;2023-04-03T13:02:23;4.53;;;2.10;;
7753;SDS011;3921;42.266;23.122;2023-04-03T13:04:53;2.60;;;2.00;;
7753;SDS011;3921;42.266;23.122;2023-04-03T13:07:28;2.70;;;2.00;;
7753;SDS011;3921;42.266;23.122;2023-04-03T13:10:04;2.43;;;1.97;;
7753;SDS011;3921;42.266;23.122;2023-04-03T13:12:46;4.80;;;1.93;;
7753;SDS011;3921;42.266;23.122;2023-04-03T13:15:17;3.00;;;1.77;;
7753;SDS011;3921;42.266;23.122;2023-04-03T13:17:48;5.27;;;1.73;;
7753;SDS011;3921;42.266;23.122;2023-04-03T13:20:20;3.20;;;1.63;;
7753;SDS011;3921;42.266;23.122;2023-04-03T13:22:54;1.77;;;1.67;;
7753;SDS011;3921;42.266;23.122;2023-04-03T13:25:26;3.00;;;1.90;;
7753;SDS011;3921;42.266;23.122;2023-04-03T13:27:55;2.27;;;1.80;;
7753;SDS011;3921;42.266;23.122;2023-04-03T13:30:29;3.60;;;1.80;;
7753;SDS011;3921;42.266;23.122;2023-04-03T13:33:02;1.60;;;1.50;;
7753;SDS011;3921;42.266;23.122;2023-04-03T13:35:36;2.20;;;1.67;;
7753;SDS011;3921;42.266;23.122;2023-04-03T13:38:07;2.40;;;1.60;;
7753;SDS011;3921;42.266;23.122;2023-04-03T13:40:54;3.83;;;1.77;;
7753;SDS011;3921;42.266;23.122;2023-04-03T13:43:26;6.73;;;1.70;;
7753;SDS011;3921;42.266;23.122;2023-04-03T13:45:55;1.50;;;1.40;;
7753;SDS011;3921;42.266;23.122;2023-04-03T13:50:55;1.60;;;1.50;;
7753;SDS011;3921;42.266;23.122;2023-04-03T13:53:25;1.87;;;1.70;;
7753;SDS011;3921;42.266;23.122;2023-04-03T13:56:04;2.40;;;2.00;;
7753;SDS011;3921;42.266;23.122;2023-04-03T13:58:34;2.33;;;1.63;;
7753;SDS011;3921;42.266;23.122;2023-04-03T14:01:06;7.17;;;2.20;;
7753;SDS011;3921;42.266;23.122;2023-04-03T14:03:39;3.97;;;2.17;;
7753;SDS011;3921;42.266;23.122;2023-04-03T14:06:10;2.50;;;1.80;;
7753;SDS011;3921;42.266;23.122;2023-04-03T14:08:39;2.10;;;1.87;;
7753;SDS011;3921;42.266;23.122;2023-04-03T14:11:08;2.20;;;1.97;;
7753;SDS011;3921;42.266;23.122;2023-04-03T14:13:39;3.33;;;1.53;;
7753;SDS011;3921;42.266;23.122;2023-04-03T14:16:06;7.80;;;2.10;;
7753;SDS011;3921;42.266;23.122;2023-04-03T14:18:33;4.57;;;1.77;;
7753;SDS011;3921;42.266;23.122;2023-04-03T14:21:01;3.50;;;2.00;;
7753;SDS011;3921;42.266;23.122;2023-04-03T14:23:30;5.27;;;2.40;;
7753;SDS011;3921;42.266;23.122;2023-04-03T14:25:58;2.43;;;1.77;;
7753;SDS011;3921;42.266;23.122;2023-04-03T14:28:25;4.40;;;1.90;;
7753;SDS011;3921;42.266;23.122;2023-04-03T14:30:52;4.53;;;1.57;;
7753;SDS011;3921;42.266;23.122;2023-04-03T14:33:20;8.77;;;1.77;;
7753;SDS011;3921;42.266;23.122;2023-04-03T14:35:48;3.60;;;1.57;;
7753;SDS011;3921;42.266;23.122;2023-04-03T14:38:23;2.73;;;1.30;;
7753;SDS011;3921;42.266;23.122;2023-04-03T14:40:53;3.37;;;1.30;;
7753;SDS011;3921;42.266;23.122;2023-04-03T14:43:21;20.70;;;2.30;;
7753;SDS011;3921;42.266;23.122;2023-04-03T14:45:49;15.83;;;2.03;;
7753;SDS011;3921;42.266;23.122;2023-04-03T14:48:18;8.40;;;1.60;;
7753;SDS011;3921;42.266;23.122;2023-04-03T14:53:31;1.60;;;1.00;;
7753;SDS011;3921;42.266;23.122;2023-04-03T14:56:00;6.30;;;1.40;;
7753;SDS011;3921;42.266;23.122;2023-04-03T14:58:27;6.27;;;1.50;;
7753;SDS011;3921;42.266;23.122;2023-04-03T15:00:54;3.03;;;1.53;;
7753;SDS011;3921;42.266;23.122;2023-04-03T15:03:21;7.67;;;1.60;;
7753;SDS011;3921;42.266;23.122;2023-04-03T15:05:49;6.33;;;1.60;;
7753;SDS011;3921;42.266;23.122;2023-04-03T15:08:18;3.60;;;1.57;;
7753;SDS011;3921;42.266;23.122;2023-04-03T15:10:47;2.30;;;1.43;;
7753;SDS011;3921;42.266;23.122;2023-04-03T15:13:16;1.53;;;1.40;;
7753;SDS011;3921;42.266;23.122;2023-04-03T15:15:48;1.40;;;1.30;;
7753;SDS011;3921;42.266;23.122;2023-04-03T15:18:17;1.83;;;1.17;;
7753;SDS011;3921;42.266;23.122;2023-04-03T15:20:51;3.30;;;1.47;;
7753;SDS011;3921;42.266;23.122;2023-04-03T15:23:18;2.03;;;1.43;;
7753;SDS011;3921;42.266;23.122;2023-04-03T15:25:52;2.20;;;1.17;;
7753;SDS011;3921;42.266;23.122;2023-04-03T15:28:23;4.87;;;1.33;;
7753;SDS011;3921;42.266;23.122;2023-04-03T15:30:55;1.43;;;1.33;;
7753;SDS011;3921;42.266;23.122;2023-04-03T15:33:22;1.33;;;1.23;;
7753;SDS011;3921;42.266;23.122;2023-04-03T15:35:50;1.37;;;1.00;;
7753;SDS011;3921;42.266;23.122;2023-04-03T15:38:17;1.03;;;0.80;;
7753;SDS011;3921;42.266;23.122;2023-04-03T15:40:45;1.23;;;1.00;;
7753;SDS011;3921;42.266;23.122;2023-04-03T15:43:13;0.70;;;0.70;;
7753;SDS011;3921;42.266;23.122;2023-04-03T15:45:42;1.37;;;1.13;;
7753;SDS011;3921;42.266;23.122;2023-04-03T15:48:10;1.20;;;1.03;;
7753;SDS011;3921;42.266;23.122;2023-04-03T15:50:38;0.70;;;0.70;;
7753;SDS011;3921;42.266;23.122;2023-04-03T15:53:06;1.30;;;0.80;;